Machala, Ecuador

12:32 PM ECT on October 30, 2014 (GMT -0500)
Machala, El Oro, Ecuador | Change Station
CLOSE
Current Station
Personal Weather Station
Location: El Cambio, EL ORO
Elevation: 20 ft
Nearby Weather Stations

Elev 20 ft 3.30 °S, 79.90 °W | Updated 3 minutes ago

Overcast
Overcast
75.3 °F
Feels Like 75 °F
N
0.0
Wind Variable Wind from WNW
Gusts 0.0 mph

Today
High -- | Low -- °F
--% Chance of Precip.
Yesterday
High -- | Low -- °F
Precip. -- in
5:56 AM 6:10 PM
Waxing Crescent, 46% visible
Pressure 29.86 in
Visibility 6.2 miles
Clouds Overcast 2000 ft
Heat Index 75 °F
Dew Point 72 °F
Humidity 88%
Rainfall 0.02 in
Snow Depth Not available.
UV 0.0 out of 12
Pollen Not available.
Air Quality Not available.
Flu Activity Not available.
METAR SPME 301700Z 30005KT 9999 OVC020 25/21 Q1011 RMK BIRD HAZARD RWY 32/14 PP000

More Conditions Fewer Conditions

Pressure 29.86 in
Visibility 6.2 miles
Clouds Overcast 2000 ft
Heat Index 75 °F
Dew Point 72 °F
Humidity 88%
Rainfall 0.02 in
Snow Depth Not available.
UV 0.0 out of 12
Pollen Not available.
Air Quality Not available.
Flu Activity Not available.
METAR SPME 301700Z 30005KT 9999 OVC020 25/21 Q1011 RMK BIRD HAZARD RWY 32/14 PP000

More Conditions Fewer Conditions

10-Day Weather Forecast

Almanac

Astronomy

Oct. 30, 2014 Rise Set
Actual Time
Civil Twilight
Nautical Twilight
Astronomical Twilight
Moon
Length of Visible Light
Length of Day
Tomorrow will be .
, % of the Moon is Illuminated

Today's Extremes

Country Highs Country Lows

Community

WunderPhotos

Upload Photos

1,766,409 photos uploaded!

WunderBlogs® & News

Nearby

Air Quality

  Air Quality AQ Index Pollutant
Not available.

Snow Depth

Station Depth Elevation

Earthquake Activity

City Distance Mag. Time & Date
Minimum magnitude displayed is 2.5.

Coastal Water Temperatures

Place Temperature

Nearby Weather Stations